createdAt,value
2023-10-10T00:00:27.912Z,15.93
2023-10-10T00:01:27.897Z,15.93
2023-10-10T00:02:27.909Z,15.96
2023-10-10T00:03:27.900Z,15.95
2023-10-10T00:04:27.783Z,15.93
2023-10-10T00:05:27.862Z,15.93
2023-10-10T00:06:27.763Z,16.04
2023-10-10T00:07:27.753Z,15.99
2023-10-10T00:08:27.758Z,15.92
2023-10-10T00:09:27.742Z,15.91
2023-10-10T00:10:27.726Z,15.92
2023-10-10T00:11:27.825Z,15.95
2023-10-10T00:12:27.740Z,15.99
2023-10-10T00:13:27.709Z,15.91
2023-10-10T00:14:27.716Z,15.92
2023-10-10T00:15:27.679Z,15.93
2023-10-10T00:16:27.753Z,15.91
2023-10-10T00:17:27.738Z,15.84
2023-10-10T00:18:27.650Z,15.91
2023-10-10T00:19:27.642Z,15.81
2023-10-10T00:20:27.668Z,15.80
2023-10-10T00:21:27.626Z,15.76
2023-10-10T00:22:27.616Z,15.64
2023-10-10T00:23:27.620Z,15.74
2023-10-10T00:24:27.598Z,15.70
2023-10-10T00:25:27.592Z,15.68
2023-10-10T00:26:27.702Z,15.68
2023-10-10T00:27:27.571Z,15.71
2023-10-10T00:28:27.557Z,15.66
2023-10-10T00:29:27.889Z,15.67
2023-10-10T00:30:27.538Z,15.67
2023-10-10T00:31:27.582Z,15.66
2023-10-10T00:32:27.691Z,15.70
2023-10-10T00:33:27.510Z,15.66
2023-10-10T00:34:27.500Z,15.58
2023-10-10T00:35:27.568Z,15.60
2023-10-10T00:36:27.481Z,15.56
2023-10-10T00:37:27.469Z,15.58
2023-10-10T00:38:27.509Z,15.56
2023-10-10T00:39:27.455Z,15.58
2023-10-10T00:40:27.444Z,15.53
2023-10-10T00:41:27.477Z,15.56
2023-10-10T00:42:27.432Z,15.56
2023-10-10T00:43:27.414Z,15.55
2023-10-10T00:44:27.516Z,15.66
2023-10-10T00:45:27.401Z,15.56
2023-10-10T00:46:27.421Z,15.58
2023-10-10T00:47:27.600Z,15.58
2023-10-10T00:48:27.412Z,15.58
2023-10-10T00:49:27.365Z,15.56
2023-10-10T00:50:27.382Z,15.58
2023-10-10T00:51:27.335Z,15.59
2023-10-10T00:52:27.330Z,15.51
2023-10-10T00:53:27.402Z,15.55
2023-10-10T00:54:27.320Z,15.58
2023-10-10T00:55:27.298Z,15.59
2023-10-10T00:56:27.327Z,15.67
2023-10-10T00:57:27.277Z,15.60
2023-10-10T00:58:27.270Z,15.66
2023-10-10T00:59:27.359Z,15.62
2023-10-10T01:00:27.251Z,15.55
2023-10-10T01:01:27.289Z,15.55
2023-10-10T01:02:27.387Z,15.51
2023-10-10T01:03:27.447Z,15.51
2023-10-10T01:04:27.242Z,15.49
2023-10-10T01:05:27.229Z,15.59
2023-10-10T01:06:27.262Z,15.55
2023-10-10T01:07:27.272Z,15.49
2023-10-10T01:08:27.209Z,15.51
2023-10-10T01:09:27.164Z,15.51
2023-10-10T01:10:27.152Z,15.38
2023-10-10T01:11:27.192Z,15.40
2023-10-10T01:12:27.139Z,15.38
2023-10-10T01:13:27.123Z,15.41
2023-10-10T01:14:27.137Z,15.41
2023-10-10T01:15:27.120Z,15.40
2023-10-10T01:16:27.121Z,15.43
2023-10-10T01:17:27.154Z,15.53
2023-10-10T01:18:27.098Z,15.49
2023-10-10T01:19:27.066Z,15.38
2023-10-10T01:20:27.185Z,15.48
2023-10-10T01:21:27.045Z,15.46
2023-10-10T01:22:27.034Z,15.46
2023-10-10T01:23:27.057Z,15.53
2023-10-10T01:24:27.022Z,15.44
2023-10-10T01:25:27.007Z,15.56
2023-10-10T01:26:27.029Z,15.51
2023-10-10T01:27:26.984Z,15.48
2023-10-10T01:28:26.978Z,15.48
2023-10-10T01:29:27.291Z,15.44
2023-10-10T01:30:26.958Z,15.34
2023-10-10T01:31:26.960Z,15.38
2023-10-10T01:32:26.967Z,15.40
2023-10-10T01:33:26.930Z,15.38
2023-10-10T01:34:26.920Z,15.33
2023-10-10T01:35:27.011Z,15.35
2023-10-10T01:36:26.926Z,15.25
2023-10-10T01:37:26.889Z,15.31
2023-10-10T01:38:26.907Z,15.28
2023-10-10T01:39:26.868Z,15.23
2023-10-10T01:40:26.861Z,15.30
2023-10-10T01:41:26.888Z,15.25
2023-10-10T01:42:26.845Z,15.25
2023-10-10T01:43:26.826Z,15.30
2023-10-10T01:44:26.859Z,15.25
2023-10-10T01:45:26.809Z,15.18
2023-10-10T01:46:26.823Z,15.16
2023-10-10T01:47:26.931Z,15.15
2023-10-10T01:48:26.807Z,15.11
2023-10-10T01:49:26.834Z,15.07
2023-10-10T01:50:27.055Z,15.11
2023-10-10T01:51:26.745Z,15.15
2023-10-10T01:52:26.772Z,15.15
2023-10-10T01:53:26.742Z,15.07
2023-10-10T01:54:26.717Z,15.13
2023-10-10T01:55:26.710Z,15.07
2023-10-10T01:56:26.716Z,15.05
2023-10-10T01:57:26.688Z,15.04
2023-10-10T01:58:26.678Z,15.05
2023-10-10T01:59:26.787Z,15.05
2023-10-10T02:00:26.741Z,14.94
2023-10-10T02:01:26.698Z,14.98
2023-10-10T02:02:26.771Z,15.05
2023-10-10T02:03:26.783Z,15.03
2023-10-10T02:04:26.619Z,15.01
2023-10-10T02:05:26.690Z,15.03
2023-10-10T02:06:26.609Z,15.05
2023-10-10T02:07:26.592Z,15.05
2023-10-10T02:08:26.632Z,15.01
2023-10-10T02:09:26.567Z,14.90
2023-10-10T02:10:26.559Z,14.95
2023-10-10T02:11:26.596Z,15.00
2023-10-10T02:12:26.544Z,14.97
2023-10-10T02:13:26.546Z,14.94
2023-10-10T02:14:26.810Z,14.94
2023-10-10T02:15:26.511Z,15.00
2023-10-10T02:16:26.554Z,14.94
2023-10-10T02:17:26.556Z,14.90
2023-10-10T02:18:26.481Z,14.85
2023-10-10T02:19:26.473Z,14.82
2023-10-10T02:20:26.519Z,14.91
2023-10-10T02:21:26.453Z,14.78
2023-10-10T02:22:26.442Z,14.80
2023-10-10T02:23:26.436Z,14.80
2023-10-10T02:24:26.461Z,14.82
2023-10-10T02:25:26.410Z,14.90
2023-10-10T02:26:26.491Z,14.94
2023-10-10T02:27:26.390Z,15.01
2023-10-10T02:28:26.391Z,14.95
2023-10-10T02:29:26.409Z,15.00
2023-10-10T02:30:26.374Z,14.95
2023-10-10T02:31:26.349Z,14.94
2023-10-10T02:32:26.426Z,14.80
2023-10-10T02:33:26.333Z,14.82
2023-10-10T02:34:26.323Z,14.78
2023-10-10T02:35:26.332Z,14.74
2023-10-10T02:36:26.299Z,14.83
2023-10-10T02:37:26.290Z,14.75
2023-10-10T02:38:26.301Z,14.78
2023-10-10T02:39:26.269Z,14.79
2023-10-10T02:40:26.280Z,14.79
2023-10-10T02:41:26.389Z,14.80
2023-10-10T02:42:26.239Z,14.82
2023-10-10T02:43:26.228Z,14.82
2023-10-10T02:44:26.243Z,14.82
2023-10-10T02:45:26.212Z,14.91
2023-10-10T02:46:26.237Z,14.82
2023-10-10T02:47:26.214Z,14.82
2023-10-10T02:48:26.180Z,14.86
2023-10-10T02:49:26.170Z,14.78
2023-10-10T02:50:26.205Z,14.82
2023-10-10T02:51:26.150Z,14.71
2023-10-10T02:52:26.141Z,14.74
2023-10-10T02:53:26.146Z,14.69
2023-10-10T02:54:26.113Z,14.66
2023-10-10T02:55:26.107Z,14.72
2023-10-10T02:56:26.139Z,14.67
2023-10-10T02:57:26.088Z,14.74
2023-10-10T02:58:26.073Z,14.74
2023-10-10T02:59:26.126Z,14.72
2023-10-10T03:00:26.062Z,14.75
2023-10-10T03:01:26.068Z,14.75
2023-10-10T03:02:26.060Z,14.78
2023-10-10T03:03:26.239Z,14.74
2023-10-10T03:04:26.040Z,14.74
2023-10-10T03:05:26.035Z,14.71
2023-10-10T03:06:25.995Z,14.79
2023-10-10T03:07:25.981Z,14.78
2023-10-10T03:08:25.999Z,14.79
2023-10-10T03:09:25.961Z,14.78
2023-10-10T03:10:25.952Z,14.78
2023-10-10T03:11:25.953Z,14.79
2023-10-10T03:12:25.962Z,14.71
2023-10-10T03:13:25.920Z,14.79
2023-10-10T03:14:25.970Z,14.79
2023-10-10T03:15:25.902Z,14.75
2023-10-10T03:16:25.944Z,14.82
2023-10-10T03:17:25.969Z,14.80
2023-10-10T03:18:25.873Z,14.72
2023-10-10T03:19:25.862Z,14.74
2023-10-10T03:20:25.868Z,14.74
2023-10-10T03:21:25.835Z,14.67
2023-10-10T03:22:25.824Z,14.59
2023-10-10T03:23:25.833Z,14.63
2023-10-10T03:24:25.810Z,14.54
2023-10-10T03:25:25.819Z,14.61
2023-10-10T03:26:25.876Z,14.59
2023-10-10T03:27:25.779Z,14.59
2023-10-10T03:28:25.786Z,14.63
2023-10-10T03:29:25.821Z,14.52
2023-10-10T03:30:25.755Z,14.48
2023-10-10T03:31:25.840Z,14.46
2023-10-10T03:32:25.839Z,14.54
2023-10-10T03:33:25.775Z,14.46
2023-10-10T03:34:25.709Z,14.38
2023-10-10T03:35:25.725Z,14.44
2023-10-10T03:36:25.682Z,14.46
2023-10-10T03:37:25.672Z,14.41
2023-10-10T03:38:25.747Z,14.42
2023-10-10T03:39:25.652Z,14.39
2023-10-10T03:40:25.640Z,14.42
2023-10-10T03:41:25.682Z,14.30
2023-10-10T03:42:25.618Z,14.35
2023-10-10T03:43:25.611Z,14.42
2023-10-10T03:44:25.647Z,14.45
2023-10-10T03:45:25.585Z,14.42
2023-10-10T03:46:25.631Z,14.39
2023-10-10T03:47:25.595Z,14.31
2023-10-10T03:48:25.559Z,14.31
2023-10-10T03:49:25.544Z,14.31
2023-10-10T03:50:25.664Z,14.39
2023-10-10T03:51:25.524Z,14.45
2023-10-10T03:52:25.553Z,14.44
2023-10-10T03:53:25.591Z,14.46
2023-10-10T03:55:25.487Z,14.31
2023-10-10T03:56:25.566Z,14.38
2023-10-10T03:57:25.464Z,14.39
2023-10-10T03:58:25.452Z,14.44
2023-10-10T03:59:25.612Z,14.23
2023-10-10T04:00:25.489Z,14.23
2023-10-10T04:01:25.441Z,14.29
2023-10-10T04:02:25.421Z,14.29
2023-10-10T04:03:25.533Z,14.24
2023-10-10T04:04:25.423Z,14.36
2023-10-10T04:06:25.374Z,14.27
2023-10-10T04:07:25.359Z,14.20
2023-10-10T04:08:25.393Z,14.20
2023-10-10T04:09:25.338Z,14.24
2023-10-10T04:10:25.341Z,14.13
2023-10-10T04:11:25.339Z,14.29
2023-10-10T04:12:25.306Z,14.24
2023-10-10T04:13:25.306Z,14.26
2023-10-10T04:14:25.354Z,14.23
2023-10-10T04:15:25.331Z,14.20
2023-10-10T04:16:25.379Z,14.21
2023-10-10T04:17:25.299Z,14.21
2023-10-10T04:18:25.258Z,14.21
2023-10-10T04:19:25.232Z,14.23
2023-10-10T04:20:25.236Z,14.29
2023-10-10T04:21:25.215Z,14.23
2023-10-10T04:22:25.216Z,14.24
2023-10-10T04:23:25.255Z,14.21
2023-10-10T04:24:25.179Z,14.36
2023-10-10T04:25:25.170Z,14.31
2023-10-10T04:26:25.238Z,14.30
2023-10-10T04:27:25.156Z,14.19
2023-10-10T04:28:25.138Z,14.20
2023-10-10T04:29:25.188Z,14.26
2023-10-10T04:30:25.114Z,14.29
2023-10-10T04:31:25.165Z,14.34
2023-10-10T04:32:25.181Z,14.23
2023-10-10T04:33:25.131Z,14.31
2023-10-10T04:34:25.078Z,14.24
2023-10-10T04:35:25.085Z,14.17
2023-10-10T04:36:25.065Z,14.17
2023-10-10T04:37:25.046Z,14.23
2023-10-10T04:38:25.080Z,14.19
2023-10-10T04:39:25.020Z,14.20
2023-10-10T04:40:25.009Z,14.23
2023-10-10T04:41:25.043Z,14.21
2023-10-10T04:42:24.992Z,14.21
2023-10-10T04:43:24.982Z,14.26
2023-10-10T04:44:24.988Z,14.17
2023-10-10T04:45:24.956Z,14.13
2023-10-10T04:46:24.955Z,14.24
2023-10-10T04:47:24.962Z,14.24
2023-10-10T04:48:24.987Z,14.23
2023-10-10T04:49:24.918Z,14.20
2023-10-10T04:50:24.956Z,14.19
2023-10-10T04:51:24.893Z,14.17
2023-10-10T04:52:24.884Z,14.26
2023-10-10T04:53:24.929Z,14.11
2023-10-10T04:54:24.858Z,14.12
2023-10-10T04:55:24.852Z,14.16
2023-10-10T04:56:24.879Z,14.11
2023-10-10T04:57:24.837Z,14.16
2023-10-10T04:58:24.832Z,14.24
2023-10-10T04:59:24.816Z,14.16
2023-10-10T05:00:24.807Z,14.12
2023-10-10T05:01:24.841Z,14.13
2023-10-10T05:02:24.804Z,14.06
2023-10-10T05:03:24.838Z,14.11
2023-10-10T05:04:24.876Z,14.16
2023-10-10T05:05:24.771Z,14.08
2023-10-10T05:06:24.747Z,14.08
2023-10-10T05:07:24.723Z,14.04
2023-10-10T05:08:24.809Z,14.01
2023-10-10T05:09:24.702Z,14.12
2023-10-10T05:10:24.696Z,14.06
2023-10-10T05:11:24.724Z,14.16
2023-10-10T05:12:24.668Z,14.17
2023-10-10T05:13:24.662Z,14.19
2023-10-10T05:14:24.712Z,14.08
2023-10-10T05:15:24.648Z,14.13
2023-10-10T05:16:24.635Z,14.06
2023-10-10T05:17:24.709Z,14.16
2023-10-10T05:18:24.638Z,14.02
2023-10-10T05:19:24.594Z,14.06
2023-10-10T05:20:24.645Z,14.05
2023-10-10T05:21:24.576Z,14.08
2023-10-10T05:22:24.562Z,14.06
2023-10-10T05:23:24.564Z,14.05
2023-10-10T05:24:24.546Z,14.09
2023-10-10T05:25:24.892Z,13.94
2023-10-10T05:26:24.540Z,13.98
2023-10-10T05:27:24.508Z,13.91
2023-10-10T05:28:24.513Z,13.96
2023-10-10T05:29:24.529Z,13.96
2023-10-10T05:30:24.549Z,13.98
2023-10-10T05:31:24.487Z,13.99
2023-10-10T05:32:24.549Z,13.98
2023-10-10T05:33:24.471Z,13.96
2023-10-10T05:34:24.627Z,13.98
2023-10-10T05:35:24.454Z,13.98
2023-10-10T05:36:24.431Z,13.98
2023-10-10T05:37:24.400Z,13.98
2023-10-10T05:38:24.400Z,13.96
2023-10-10T05:39:24.382Z,13.98
2023-10-10T05:40:24.372Z,14.04
2023-10-10T05:41:24.404Z,14.05
2023-10-10T05:42:24.346Z,14.02
2023-10-10T05:43:24.336Z,13.98
2023-10-10T05:44:24.345Z,13.99
2023-10-10T05:45:24.316Z,14.01
2023-10-10T05:46:24.353Z,14.04
2023-10-10T05:47:24.322Z,14.09
2023-10-10T05:48:24.319Z,14.06
2023-10-10T05:49:24.286Z,14.17
2023-10-10T05:50:24.336Z,14.17
2023-10-10T05:51:24.255Z,14.16
2023-10-10T05:52:24.266Z,14.17
2023-10-10T05:53:24.264Z,14.24
2023-10-10T05:54:24.220Z,14.29
2023-10-10T05:55:24.208Z,14.21
2023-10-10T05:56:24.294Z,14.26
2023-10-10T05:57:24.187Z,14.26
2023-10-10T05:58:24.178Z,14.20
2023-10-10T05:59:24.184Z,14.29
2023-10-10T06:00:24.154Z,14.31
2023-10-10T06:01:24.168Z,14.39
2023-10-10T06:02:24.234Z,14.34
2023-10-10T06:03:24.203Z,14.31
2023-10-10T06:04:24.166Z,14.30
2023-10-10T06:05:24.161Z,14.31
2023-10-10T06:06:24.108Z,14.39
2023-10-10T06:07:24.078Z,14.44
2023-10-10T06:08:24.110Z,14.34
2023-10-10T06:09:24.056Z,14.41
2023-10-10T06:10:24.047Z,14.35
2023-10-10T06:11:24.082Z,14.45
2023-10-10T06:12:24.026Z,14.46
2023-10-10T06:13:24.025Z,14.53
2023-10-10T06:14:24.045Z,14.46
2023-10-10T06:15:23.995Z,14.45
2023-10-10T06:16:24.074Z,14.56
2023-10-10T06:17:24.130Z,14.53
2023-10-10T06:18:24.036Z,14.54
2023-10-10T06:19:23.952Z,14.54
2023-10-10T06:20:23.955Z,14.63
2023-10-10T06:21:23.929Z,14.63
2023-10-10T06:22:23.919Z,14.60
2023-10-10T06:23:23.992Z,14.69
2023-10-10T06:24:23.926Z,14.66
2023-10-10T06:25:23.889Z,14.72
2023-10-10T06:26:23.900Z,14.74
2023-10-10T06:27:26.262Z,14.78
2023-10-10T06:28:23.903Z,14.83
2023-10-10T06:29:23.856Z,14.80
2023-10-10T06:30:23.842Z,14.75
2023-10-10T06:31:23.878Z,14.75
2023-10-10T06:32:23.892Z,14.75
2023-10-10T06:33:23.878Z,14.82
2023-10-10T06:34:24.126Z,14.82
2023-10-10T06:35:23.806Z,14.86
2023-10-10T06:36:24.220Z,14.94
2023-10-10T06:37:23.764Z,14.95
2023-10-10T06:38:23.781Z,15.00
2023-10-10T06:39:23.746Z,15.05
2023-10-10T06:40:23.756Z,15.05
2023-10-10T06:41:23.784Z,15.03
2023-10-10T06:42:23.719Z,15.12
2023-10-10T06:43:23.702Z,15.15
2023-10-10T06:44:23.737Z,15.09
2023-10-10T06:45:23.680Z,15.16
2023-10-10T06:46:23.674Z,15.12
2023-10-10T06:47:23.687Z,15.12
2023-10-10T06:48:23.695Z,15.25
2023-10-10T06:49:23.661Z,15.12
2023-10-10T06:50:23.646Z,15.16
2023-10-10T06:51:23.616Z,15.20
2023-10-10T06:52:23.612Z,15.27
2023-10-10T06:53:23.666Z,15.19
2023-10-10T06:54:23.590Z,15.23
2023-10-10T06:55:23.581Z,15.31
2023-10-10T06:56:23.626Z,15.40
2023-10-10T06:57:23.570Z,15.55
2023-10-10T06:58:23.552Z,15.52
2023-10-10T06:59:23.562Z,15.56
2023-10-10T07:00:23.580Z,15.67
2023-10-10T07:01:23.559Z,15.80
2023-10-10T07:02:23.521Z,15.88
2023-10-10T07:03:23.538Z,15.91
2023-10-10T07:04:23.512Z,16.03
2023-10-10T07:05:23.516Z,16.16
2023-10-10T07:06:23.483Z,16.26
2023-10-10T07:07:23.469Z,16.34
2023-10-10T07:08:23.488Z,16.37
2023-10-10T07:09:23.448Z,16.51
2023-10-10T07:10:23.430Z,16.52
2023-10-10T07:11:23.459Z,16.66
2023-10-10T07:12:23.433Z,16.72
2023-10-10T07:13:23.402Z,16.70
2023-10-10T07:14:23.424Z,16.84
2023-10-10T07:15:23.430Z,16.84
2023-10-10T07:16:23.413Z,16.88
2023-10-10T07:17:23.409Z,16.82
2023-10-10T07:18:23.566Z,16.84
2023-10-10T07:19:23.349Z,16.85
2023-10-10T07:20:23.358Z,16.95
2023-10-10T07:21:23.327Z,16.91
2023-10-10T07:22:23.319Z,16.95
2023-10-10T07:23:23.336Z,16.96
2023-10-10T07:24:24.307Z,17.03
2023-10-10T07:25:23.326Z,16.92
2023-10-10T07:26:23.298Z,17.02
2023-10-10T07:27:24.117Z,17.09
2023-10-10T07:28:23.290Z,17.07
2023-10-10T07:29:23.336Z,17.06
2023-10-10T07:30:23.244Z,17.02
2023-10-10T07:31:23.353Z,17.12
2023-10-10T07:32:23.244Z,17.20
2023-10-10T07:33:23.297Z,17.12
2023-10-10T07:34:23.210Z,17.09
2023-10-10T07:35:23.243Z,17.15
2023-10-10T07:36:23.195Z,17.18
2023-10-10T07:37:23.180Z,17.22
2023-10-10T07:38:23.187Z,17.32
2023-10-10T07:39:23.162Z,17.32
2023-10-10T07:40:23.155Z,17.42
2023-10-10T07:41:23.190Z,17.28
2023-10-10T07:42:23.137Z,17.43
2023-10-10T07:43:23.126Z,17.54
2023-10-10T07:44:23.173Z,17.54
2023-10-10T07:45:23.109Z,17.54
2023-10-10T07:46:23.155Z,17.62
2023-10-10T07:47:23.140Z,17.77
2023-10-10T07:48:23.151Z,17.77
2023-10-10T07:49:23.074Z,17.77
2023-10-10T07:50:23.100Z,17.94
2023-10-10T07:51:23.056Z,17.94
2023-10-10T07:52:23.050Z,17.89
2023-10-10T07:53:23.062Z,18.04
2023-10-10T07:54:23.032Z,18.13
2023-10-10T07:55:23.024Z,18.14
2023-10-10T07:56:23.032Z,18.25
2023-10-10T07:57:23.011Z,18.35
2023-10-10T07:58:28.607Z,18.36
2023-10-10T07:59:23.066Z,18.39
2023-10-10T08:00:23.005Z,18.38
2023-10-10T08:01:22.983Z,18.53
2023-10-10T08:02:22.991Z,18.50
2023-10-10T08:03:23.004Z,18.59
2023-10-10T08:04:23.173Z,18.65
2023-10-10T08:05:22.946Z,18.64
2023-10-10T08:06:23.590Z,18.76
2023-10-10T08:07:22.923Z,18.87
2023-10-10T08:08:22.949Z,18.97
2023-10-10T08:09:22.905Z,18.99
2023-10-10T08:10:22.913Z,19.02
2023-10-10T08:11:22.921Z,19.09
2023-10-10T08:12:22.882Z,19.13
2023-10-10T08:13:22.874Z,19.27
2023-10-10T08:14:22.914Z,19.30
2023-10-10T08:15:22.860Z,19.39
2023-10-10T08:16:22.938Z,19.50
2023-10-10T08:17:22.926Z,19.57
2023-10-10T08:18:22.949Z,19.67
2023-10-10T08:19:22.828Z,19.71
2023-10-10T08:20:22.912Z,19.71
2023-10-10T08:21:22.810Z,19.80
2023-10-10T08:22:22.805Z,19.79
2023-10-10T08:23:22.816Z,19.76
2023-10-10T08:24:22.791Z,19.94
2023-10-10T08:25:22.785Z,19.87
2023-10-10T08:26:23.054Z,19.94
2023-10-10T08:27:22.767Z,19.92
2023-10-10T08:28:22.762Z,19.90
2023-10-10T08:29:22.785Z,19.89
2023-10-10T08:30:22.754Z,20.04
2023-10-10T08:31:22.789Z,20.02
2023-10-10T08:32:22.906Z,20.00
2023-10-10T08:33:22.833Z,20.10
2023-10-10T08:34:23.552Z,20.13
2023-10-10T08:35:22.740Z,20.17
2023-10-10T08:36:22.705Z,20.15
2023-10-10T08:37:22.693Z,20.19
2023-10-10T08:38:22.687Z,20.13
2023-10-10T08:39:22.678Z,20.20
2023-10-10T08:40:22.675Z,20.19
2023-10-10T08:41:22.682Z,20.23
2023-10-10T08:42:23.665Z,20.20
2023-10-10T08:43:22.652Z,20.20
2023-10-10T08:44:22.681Z,20.22
2023-10-10T08:45:22.638Z,20.30
2023-10-10T08:46:22.695Z,20.34
2023-10-10T08:47:22.675Z,20.31
2023-10-10T08:48:22.699Z,20.33
2023-10-10T08:49:22.613Z,20.38
2023-10-10T08:50:22.620Z,20.41
2023-10-10T08:51:22.595Z,20.48
2023-10-10T08:52:22.592Z,20.46
2023-10-10T08:53:22.655Z,20.48
2023-10-10T08:54:22.716Z,20.46
2023-10-10T08:55:22.580Z,20.46
2023-10-10T08:56:22.649Z,20.42
2023-10-10T08:57:22.560Z,20.53
2023-10-10T08:58:22.550Z,20.46
2023-10-10T08:59:22.633Z,20.41
2023-10-10T09:00:22.594Z,20.38
2023-10-10T09:01:22.590Z,20.44
2023-10-10T09:02:22.598Z,20.46
2023-10-10T09:03:22.621Z,20.40
2023-10-10T09:04:22.626Z,20.37
2023-10-10T09:05:22.509Z,20.33
2023-10-10T09:06:22.515Z,20.34
2023-10-10T09:07:22.488Z,20.37
2023-10-10T09:08:22.496Z,20.46
2023-10-10T09:09:22.479Z,20.53
2023-10-10T09:10:22.473Z,20.54
2023-10-10T09:11:22.570Z,20.50
2023-10-10T09:12:22.456Z,20.53
2023-10-10T09:13:22.450Z,20.54
2023-10-10T09:14:22.455Z,20.60
2023-10-10T09:15:22.443Z,20.61
2023-10-10T09:16:22.451Z,20.68
2023-10-10T09:17:22.449Z,20.60
2023-10-10T09:18:22.470Z,20.57
2023-10-10T09:19:22.414Z,20.64
2023-10-10T09:20:22.484Z,20.61
2023-10-10T09:21:22.460Z,20.76
2023-10-10T09:22:22.389Z,20.76
2023-10-10T09:23:22.401Z,20.91
2023-10-10T09:24:22.376Z,20.97
2023-10-10T09:25:22.375Z,21.08
2023-10-10T09:26:22.403Z,21.13
2023-10-10T09:27:22.362Z,21.19
2023-10-10T09:28:22.355Z,21.33
2023-10-10T09:29:22.415Z,21.42
2023-10-10T09:30:22.357Z,21.43
2023-10-10T09:31:22.340Z,21.52
2023-10-10T09:32:22.371Z,21.55
2023-10-10T09:33:22.397Z,21.77
2023-10-10T09:34:22.313Z,21.77
2023-10-10T09:35:22.405Z,21.83
2023-10-10T09:36:22.330Z,21.81
2023-10-10T09:37:22.305Z,21.85
2023-10-10T09:38:22.336Z,21.99
2023-10-10T09:39:22.299Z,21.98
2023-10-10T09:40:22.280Z,22.08
2023-10-10T09:41:22.311Z,22.20
2023-10-10T09:42:22.266Z,22.26
2023-10-10T09:43:22.264Z,22.27
2023-10-10T09:44:22.413Z,22.23
2023-10-10T09:45:22.253Z,22.26
2023-10-10T09:46:22.262Z,22.30
2023-10-10T09:47:22.245Z,22.31
2023-10-10T09:48:22.254Z,22.45
2023-10-10T09:49:22.239Z,22.41
2023-10-10T09:50:22.244Z,22.42
2023-10-10T09:51:22.218Z,22.48
2023-10-10T09:52:22.233Z,22.44
2023-10-10T09:53:22.309Z,22.46
2023-10-10T09:54:22.280Z,22.48
2023-10-10T09:55:22.198Z,22.54
2023-10-10T09:56:22.243Z,22.59
2023-10-10T09:57:22.187Z,22.46
2023-10-10T09:58:22.181Z,22.60
2023-10-10T09:59:22.333Z,22.51
2023-10-10T10:00:27.676Z,22.46
2023-10-10T10:01:22.189Z,22.41
2023-10-10T10:02:22.194Z,22.41
2023-10-10T10:03:22.172Z,22.33
2023-10-10T10:04:22.151Z,22.44
2023-10-10T10:05:22.169Z,22.38
2023-10-10T10:06:22.139Z,22.38
2023-10-10T10:07:22.138Z,22.41
2023-10-10T10:08:22.188Z,22.49
2023-10-10T10:09:22.128Z,22.48
2023-10-10T10:10:22.125Z,22.49
2023-10-10T10:11:22.128Z,22.48
2023-10-10T10:12:22.109Z,22.49
2023-10-10T10:13:22.105Z,22.57
2023-10-10T10:14:22.628Z,22.52
2023-10-10T10:15:22.100Z,22.48
2023-10-10T10:16:22.117Z,22.45
2023-10-10T10:17:22.195Z,22.46
2023-10-10T10:18:22.114Z,22.49
2023-10-10T10:19:22.079Z,22.45
2023-10-10T10:20:22.094Z,22.38
2023-10-10T10:21:22.067Z,22.45
2023-10-10T10:22:22.057Z,22.51
2023-10-10T10:23:22.074Z,22.48
2023-10-10T10:24:22.072Z,22.45
2023-10-10T10:25:22.046Z,22.61
2023-10-10T10:26:22.122Z,22.54
2023-10-10T10:27:22.034Z,22.61
2023-10-10T10:28:22.034Z,22.63
2023-10-10T10:29:22.097Z,22.72
2023-10-10T10:30:22.016Z,22.82
2023-10-10T10:31:22.023Z,22.88
2023-10-10T10:32:22.034Z,22.91
2023-10-10T10:33:22.021Z,22.94
2023-10-10T10:34:21.996Z,23.00
2023-10-10T10:35:22.052Z,23.06
2023-10-10T10:36:22.060Z,23.09
2023-10-10T10:37:22.025Z,23.11
2023-10-10T10:38:22.019Z,23.12
2023-10-10T10:39:21.997Z,23.22
2023-10-10T10:40:22.007Z,23.14
2023-10-10T10:41:22.005Z,23.22
2023-10-10T10:42:22.020Z,23.29
2023-10-10T10:43:21.985Z,23.35
2023-10-10T10:44:21.958Z,23.31
2023-10-10T10:45:21.954Z,23.38
2023-10-10T10:46:22.443Z,23.39
2023-10-10T10:47:21.956Z,23.49
2023-10-10T10:48:21.975Z,23.53
2023-10-10T10:49:21.937Z,23.47
2023-10-10T10:50:21.978Z,23.54
2023-10-10T10:51:21.926Z,23.41
2023-10-10T10:52:21.913Z,23.56
2023-10-10T10:53:22.028Z,23.52
2023-10-10T10:54:21.902Z,23.56
2023-10-10T10:55:21.901Z,23.56
2023-10-10T10:56:22.033Z,23.63
2023-10-10T10:57:25.521Z,23.72
2023-10-10T10:58:22.088Z,23.75
2023-10-10T10:59:22.200Z,23.72
2023-10-10T11:00:21.909Z,23.86
2023-10-10T11:01:21.898Z,23.90
2023-10-10T11:02:21.890Z,23.82
2023-10-10T11:03:21.954Z,23.99
2023-10-10T11:04:21.859Z,24.09
2023-10-10T11:05:21.917Z,24.16
2023-10-10T11:06:21.844Z,24.18
2023-10-10T11:07:21.848Z,24.34
2023-10-10T11:08:21.856Z,24.29
2023-10-10T11:09:22.085Z,24.41
2023-10-10T11:10:21.830Z,24.41
2023-10-10T11:11:21.843Z,24.46
2023-10-10T11:12:21.844Z,24.52
2023-10-10T11:13:21.827Z,24.53
2023-10-10T11:14:21.847Z,24.71
2023-10-10T11:15:21.828Z,24.71
2023-10-10T11:16:21.825Z,24.75
2023-10-10T11:17:21.856Z,24.82
2023-10-10T11:18:23.359Z,24.98
2023-10-10T11:19:21.797Z,24.98
2023-10-10T11:20:21.898Z,24.99
2023-10-10T11:21:21.789Z,24.90
2023-10-10T11:22:21.784Z,25.02
2023-10-10T11:23:24.111Z,25.07
2023-10-10T11:24:21.776Z,25.09
2023-10-10T11:25:21.792Z,25.04
2023-10-10T11:26:21.803Z,25.02
2023-10-10T11:27:21.771Z,25.07
2023-10-10T11:28:22.115Z,25.02
2023-10-10T11:29:21.771Z,25.26
2023-10-10T11:30:21.757Z,25.23
2023-10-10T11:31:21.776Z,25.23
2023-10-10T11:32:21.765Z,25.39
2023-10-10T11:33:21.829Z,25.34
2023-10-10T11:34:21.743Z,25.35
2023-10-10T11:35:21.760Z,25.42
2023-10-10T11:36:21.738Z,25.51
2023-10-10T11:37:24.842Z,25.60
2023-10-10T11:38:21.765Z,25.69
2023-10-10T11:39:21.729Z,25.66
2023-10-10T11:40:21.729Z,25.63
2023-10-10T11:41:21.770Z,25.72
2023-10-10T11:42:21.718Z,25.66
2023-10-10T11:43:21.720Z,25.72
2023-10-10T11:44:21.768Z,25.79
2023-10-10T11:45:21.763Z,25.67
2023-10-10T11:46:21.806Z,25.67
2023-10-10T11:47:21.716Z,25.74
2023-10-10T11:48:21.746Z,25.81
2023-10-10T11:49:21.699Z,25.72
2023-10-10T11:50:21.716Z,25.67
2023-10-10T11:51:21.695Z,25.75
2023-10-10T11:52:21.704Z,25.71
2023-10-10T11:53:21.722Z,25.69
2023-10-10T11:54:21.683Z,25.76
2023-10-10T11:55:21.705Z,25.69
2023-10-10T11:56:21.687Z,25.72
2023-10-10T11:57:21.679Z,25.71
2023-10-10T11:58:21.672Z,25.66
2023-10-10T11:59:21.717Z,25.72
2023-10-10T12:00:27.546Z,25.74
2023-10-10T12:01:21.789Z,25.64
2023-10-10T12:02:21.667Z,25.69
2023-10-10T12:03:21.828Z,25.74
2023-10-10T12:04:21.762Z,25.69
2023-10-10T12:05:21.686Z,25.72
2023-10-10T12:06:21.651Z,25.75
2023-10-10T12:07:21.657Z,25.72
2023-10-10T12:08:21.668Z,25.81
2023-10-10T12:09:21.645Z,25.69
2023-10-10T12:10:21.641Z,25.66
2023-10-10T12:11:21.957Z,25.74
2023-10-10T12:12:22.885Z,25.66
2023-10-10T12:13:21.645Z,25.66
2023-10-10T12:14:21.641Z,25.60
2023-10-10T12:15:21.678Z,25.69
2023-10-10T12:17:21.683Z,25.66
2023-10-10T12:18:21.698Z,25.56
2023-10-10T12:19:21.630Z,25.56
2023-10-10T12:20:21.669Z,25.57
2023-10-10T12:21:21.613Z,25.66
2023-10-10T12:22:21.617Z,25.71
2023-10-10T12:23:21.655Z,25.72
2023-10-10T12:24:21.629Z,25.69
2023-10-10T12:25:21.603Z,25.66
2023-10-10T12:26:21.615Z,25.72
2023-10-10T12:27:21.595Z,25.90
2023-10-10T12:28:21.633Z,25.90
2023-10-10T12:29:22.930Z,25.89
2023-10-10T12:30:21.620Z,25.85
2023-10-10T12:31:21.612Z,25.83
2023-10-10T12:32:21.621Z,25.85
2023-10-10T12:33:21.688Z,25.82
2023-10-10T12:34:21.579Z,25.98
2023-10-10T12:35:21.617Z,25.98
2023-10-10T12:36:21.574Z,25.98
2023-10-10T12:37:21.567Z,25.85
2023-10-10T12:38:21.590Z,25.85
2023-10-10T12:39:21.560Z,25.85
2023-10-10T12:40:21.564Z,25.85
2023-10-10T12:41:21.668Z,25.83
2023-10-10T12:42:21.554Z,25.78
2023-10-10T12:43:21.552Z,25.72
2023-10-10T12:44:21.626Z,25.74
2023-10-10T12:45:21.546Z,25.72
2023-10-10T12:46:21.631Z,25.83
2023-10-10T12:47:21.569Z,25.74
2023-10-10T12:48:21.810Z,25.78
2023-10-10T12:49:21.555Z,25.71
2023-10-10T12:50:21.553Z,25.76
2023-10-10T12:51:21.579Z,25.67
2023-10-10T12:52:21.532Z,25.67
2023-10-10T12:53:21.567Z,25.66
2023-10-10T12:54:21.542Z,25.71
2023-10-10T12:55:21.519Z,25.74